createdAt,value
2018-06-28T00:00:20.697Z,16.30
2018-06-28T00:02:48.109Z,16.50
2018-06-28T00:05:15.412Z,16.70
2018-06-28T00:07:42.714Z,16.70
2018-06-28T00:10:10.054Z,16.70
2018-06-28T00:12:37.713Z,16.70
2018-06-28T00:15:05.598Z,16.70
2018-06-28T00:17:32.981Z,16.70
2018-06-28T00:20:00.318Z,16.60
2018-06-28T00:22:27.694Z,16.60
2018-06-28T00:24:55.315Z,16.60
2018-06-28T00:27:22.654Z,16.50
2018-06-28T00:29:50.055Z,16.40
2018-06-28T00:32:17.373Z,16.40
2018-06-28T00:34:44.749Z,16.30
2018-06-28T00:37:12.085Z,16.20
2018-06-28T00:39:39.405Z,16.20
2018-06-28T00:42:06.722Z,16.20
2018-06-28T00:44:34.049Z,16.10
2018-06-28T00:47:01.410Z,16.10
2018-06-28T00:49:28.782Z,16.10
2018-06-28T00:51:56.097Z,16.00
2018-06-28T00:54:23.506Z,15.90
2018-06-28T00:56:50.952Z,15.80
2018-06-28T00:59:18.289Z,15.80
2018-06-28T01:01:45.629Z,15.80
2018-06-28T01:04:13.018Z,15.80
2018-06-28T01:06:40.478Z,15.60
2018-06-28T01:09:09.450Z,15.60
2018-06-28T01:11:37.122Z,15.50
2018-06-28T01:14:04.466Z,15.50
2018-06-28T01:16:31.805Z,15.50
2018-06-28T01:18:59.149Z,15.40
2018-06-28T01:21:26.465Z,15.40
2018-06-28T01:23:53.933Z,15.30
2018-06-28T01:26:21.302Z,15.30
2018-06-28T01:28:48.807Z,15.20
2018-06-28T01:31:16.151Z,15.20
2018-06-28T01:33:43.486Z,15.30
2018-06-28T01:36:10.821Z,15.30
2018-06-28T01:38:38.145Z,15.40
2018-06-28T01:41:06.057Z,15.40
2018-06-28T01:43:39.001Z,15.30
2018-06-28T01:46:06.426Z,15.20
2018-06-28T01:48:33.905Z,15.20
2018-06-28T01:51:01.279Z,15.20
2018-06-28T01:53:28.702Z,15.20
2018-06-28T01:55:56.109Z,15.10
2018-06-28T01:58:23.457Z,15.10
2018-06-28T02:00:50.967Z,15.10
2018-06-28T02:03:18.384Z,15.10
2018-06-28T02:05:46.603Z,15.10
2018-06-28T02:08:13.909Z,15.00
2018-06-28T02:10:41.281Z,14.80
2018-06-28T02:13:08.602Z,14.80
2018-06-28T02:15:36.249Z,14.70
2018-06-28T02:18:04.241Z,14.70
2018-06-28T02:20:31.582Z,14.60
2018-06-28T02:22:58.905Z,14.60
2018-06-28T02:25:26.358Z,14.60
2018-06-28T02:27:53.714Z,14.50
2018-06-28T02:30:21.183Z,14.50
2018-06-28T02:32:48.590Z,14.50
2018-06-28T02:35:15.911Z,14.50
2018-06-28T02:37:43.257Z,14.50
2018-06-28T02:40:10.604Z,14.50
2018-06-28T02:42:38.353Z,14.50
2018-06-28T02:45:05.874Z,14.40
2018-06-28T02:47:33.209Z,14.40
2018-06-28T02:50:00.846Z,14.40
2018-06-28T02:52:28.189Z,14.30
2018-06-28T02:54:55.825Z,14.40
2018-06-28T02:57:23.158Z,14.40
2018-06-28T02:59:50.530Z,14.30
2018-06-28T03:02:17.910Z,14.20
2018-06-28T03:04:45.237Z,14.20
2018-06-28T03:07:12.718Z,14.20
2018-06-28T03:09:40.031Z,14.20
2018-06-28T03:12:07.401Z,14.20
2018-06-28T03:14:34.870Z,14.20
2018-06-28T03:19:29.558Z,14.20
2018-06-28T03:21:56.877Z,14.20
2018-06-28T03:24:24.245Z,14.10
2018-06-28T03:26:51.683Z,14.00
2018-06-28T03:29:19.106Z,14.10
2018-06-28T03:31:46.506Z,14.10
2018-06-28T03:34:13.882Z,14.00
2018-06-28T03:36:41.206Z,13.90
2018-06-28T03:39:10.837Z,13.90
2018-06-28T03:41:38.342Z,13.90
2018-06-28T03:44:05.654Z,13.80
2018-06-28T03:46:33.099Z,13.80
2018-06-28T03:49:00.461Z,13.90
2018-06-28T03:51:27.805Z,14.00
2018-06-28T03:53:55.150Z,14.00
2018-06-28T03:56:22.618Z,14.00
2018-06-28T03:58:50.706Z,14.10
2018-06-28T04:01:18.090Z,14.00
2018-06-28T04:03:45.440Z,14.00
2018-06-28T04:06:12.826Z,14.00
2018-06-28T04:08:40.166Z,14.00
2018-06-28T04:11:07.499Z,14.10
2018-06-28T04:13:35.185Z,14.20
2018-06-28T04:16:02.529Z,14.10
2018-06-28T04:18:29.881Z,14.10
2018-06-28T04:20:57.317Z,14.20
2018-06-28T04:23:24.686Z,14.40
2018-06-28T04:25:52.043Z,14.60
2018-06-28T04:28:19.357Z,14.70
2018-06-28T04:30:46.798Z,14.70
2018-06-28T04:33:14.130Z,14.70
2018-06-28T04:35:42.101Z,14.70
2018-06-28T04:38:09.991Z,14.80
2018-06-28T04:40:37.361Z,14.90
2018-06-28T04:43:04.771Z,14.90
2018-06-28T04:45:32.161Z,15.00
2018-06-28T04:48:00.027Z,15.10
2018-06-28T04:50:27.391Z,15.10
2018-06-28T04:52:54.757Z,15.20
2018-06-28T04:55:22.225Z,15.20
2018-06-28T04:57:49.693Z,15.20
2018-06-28T05:00:17.076Z,15.30
2018-06-28T05:02:44.515Z,15.30
2018-06-28T05:05:11.855Z,15.40
2018-06-28T05:07:39.265Z,15.40
2018-06-28T05:10:06.841Z,15.50
2018-06-28T05:12:34.230Z,15.50
2018-06-28T05:15:01.590Z,15.60
2018-06-28T05:17:28.909Z,15.70
2018-06-28T05:19:56.241Z,15.70
2018-06-28T05:22:24.058Z,15.80
2018-06-28T05:24:52.208Z,15.90
2018-06-28T05:27:19.703Z,16.00
2018-06-28T05:29:47.033Z,16.00
2018-06-28T05:32:14.397Z,16.10
2018-06-28T05:34:41.785Z,16.20
2018-06-28T05:37:09.109Z,16.20
2018-06-28T05:39:36.457Z,16.30
2018-06-28T05:42:03.834Z,16.50
2018-06-28T05:44:31.181Z,16.90
2018-06-28T05:46:58.519Z,17.30
2018-06-28T05:49:25.849Z,17.80
2018-06-28T05:51:53.413Z,18.10
2018-06-28T05:54:20.817Z,18.40
2018-06-28T05:56:48.174Z,18.50
2018-06-28T05:59:15.494Z,18.70
2018-06-28T06:01:42.855Z,18.90
2018-06-28T06:04:10.917Z,19.10
2018-06-28T06:06:38.354Z,19.20
2018-06-28T06:09:06.825Z,19.30
2018-06-28T06:11:34.261Z,19.70
2018-06-28T06:14:01.706Z,19.60
2018-06-28T06:16:29.013Z,19.70
2018-06-28T06:18:56.510Z,20.00
2018-06-28T06:21:23.802Z,20.10
2018-06-28T06:23:51.203Z,19.90
2018-06-28T06:26:18.574Z,20.00
2018-06-28T06:28:45.949Z,20.20
2018-06-28T06:31:13.329Z,20.60
2018-06-28T06:33:40.677Z,20.90
2018-06-28T06:36:08.204Z,21.20
2018-06-28T06:38:35.609Z,21.20
2018-06-28T06:41:03.339Z,21.10
2018-06-28T06:43:30.749Z,21.30
2018-06-28T06:45:58.236Z,21.50
2018-06-28T06:48:25.563Z,21.50
2018-06-28T06:50:53.090Z,21.20
2018-06-28T06:53:20.511Z,21.30
2018-06-28T06:55:47.846Z,21.50
2018-06-28T06:58:15.206Z,21.70
2018-06-28T07:00:42.636Z,21.90
2018-06-28T07:03:10.026Z,22.00
2018-06-28T07:05:37.482Z,22.20
2018-06-28T07:08:04.899Z,22.10
2018-06-28T07:10:32.338Z,22.10
2018-06-28T07:13:00.106Z,22.10
2018-06-28T07:15:27.448Z,22.10
2018-06-28T07:17:54.970Z,22.30
2018-06-28T07:20:22.433Z,22.60
2018-06-28T07:22:49.854Z,22.80
2018-06-28T07:25:17.205Z,23.00
2018-06-28T07:30:11.881Z,23.20
2018-06-28T07:32:39.403Z,23.30
2018-06-28T07:35:06.626Z,23.50
2018-06-28T07:37:34.101Z,23.50
2018-06-28T07:40:01.447Z,23.70
2018-06-28T07:42:28.800Z,23.70
2018-06-28T07:47:23.494Z,23.80
2018-06-28T07:49:50.968Z,23.90
2018-06-28T07:52:18.324Z,24.10
2018-06-28T07:54:45.668Z,24.20
2018-06-28T07:57:13.438Z,24.30
2018-06-28T07:59:40.792Z,24.20
2018-06-28T08:02:08.311Z,24.10
2018-06-28T08:04:35.661Z,24.20
2018-06-28T08:07:03.043Z,24.20
2018-06-28T08:09:30.493Z,24.50
2018-06-28T08:12:01.762Z,24.70
2018-06-28T08:14:29.106Z,24.80
2018-06-28T08:16:56.513Z,25.00
2018-06-28T08:19:23.857Z,25.00
2018-06-28T08:21:51.822Z,25.10
2018-06-28T08:24:19.165Z,25.20
2018-06-28T08:26:46.538Z,25.30
2018-06-28T08:29:13.885Z,25.30
2018-06-28T08:31:41.333Z,25.40
2018-06-28T08:34:08.825Z,25.50
2018-06-28T08:36:36.262Z,25.50
2018-06-28T08:39:06.149Z,25.60
2018-06-28T08:41:33.492Z,25.60
2018-06-28T08:44:00.872Z,25.70
2018-06-28T08:46:29.046Z,25.30
2018-06-28T08:48:56.451Z,25.00
2018-06-28T08:51:23.818Z,24.80
2018-06-28T08:53:51.266Z,25.30
2018-06-28T08:56:18.631Z,25.50
2018-06-28T08:58:46.942Z,25.80
2018-06-28T09:01:14.353Z,25.60
2018-06-28T09:03:41.709Z,25.80
2018-06-28T09:06:09.109Z,25.90
2018-06-28T09:08:36.511Z,25.30
2018-06-28T09:11:03.905Z,25.50
2018-06-28T09:13:31.605Z,25.90
2018-06-28T09:15:59.038Z,26.00
2018-06-28T09:18:26.386Z,26.10
2018-06-28T09:20:53.770Z,26.10
2018-06-28T09:23:21.643Z,26.20
2018-06-28T09:25:49.126Z,26.30
2018-06-28T09:28:16.529Z,26.40
2018-06-28T09:30:43.941Z,26.20
2018-06-28T09:33:12.050Z,26.30
2018-06-28T09:35:40.562Z,26.40
2018-06-28T09:38:07.934Z,26.50
2018-06-28T09:40:35.414Z,26.20
2018-06-28T09:43:02.826Z,26.30
2018-06-28T09:45:30.207Z,26.40
2018-06-28T09:47:58.261Z,26.30
2018-06-28T09:50:25.759Z,26.40
2018-06-28T09:52:53.117Z,26.50
2018-06-28T09:55:20.481Z,26.80
2018-06-28T09:57:47.870Z,26.90
2018-06-28T10:00:21.135Z,26.90
2018-06-28T10:02:48.458Z,26.60
2018-06-28T10:05:15.894Z,26.30
2018-06-28T10:07:43.257Z,25.70
2018-06-28T10:10:10.614Z,26.10
2018-06-28T10:12:38.170Z,26.50
2018-06-28T10:15:05.954Z,26.80
2018-06-28T10:17:33.426Z,27.00
2018-06-28T10:20:00.823Z,27.00
2018-06-28T10:22:28.285Z,27.20
2018-06-28T10:27:23.118Z,27.30
2018-06-28T10:29:50.654Z,27.00
2018-06-28T10:32:18.098Z,26.90
2018-06-28T10:34:45.465Z,27.10
2018-06-28T10:37:12.950Z,26.90
2018-06-28T10:39:40.476Z,26.90
2018-06-28T10:42:07.957Z,27.30
2018-06-28T10:44:35.384Z,27.50
2018-06-28T10:47:02.845Z,27.60
2018-06-28T10:49:30.713Z,27.60
2018-06-28T10:52:01.957Z,27.60
2018-06-28T10:54:29.293Z,27.80
2018-06-28T10:56:56.691Z,27.80
2018-06-28T10:59:24.017Z,27.80
2018-06-28T11:01:51.579Z,27.60
2018-06-28T11:04:18.975Z,27.60
2018-06-28T11:06:46.333Z,27.30
2018-06-28T11:09:13.736Z,27.40
2018-06-28T11:11:41.577Z,27.40
2018-06-28T11:14:09.017Z,27.40
2018-06-28T11:16:36.402Z,27.60
2018-06-28T11:19:03.988Z,27.60
2018-06-28T11:21:31.621Z,27.60
2018-06-28T11:23:58.985Z,27.70
2018-06-28T11:26:26.745Z,27.80
2018-06-28T11:28:54.148Z,27.90
2018-06-28T11:31:21.537Z,27.80
2018-06-28T11:33:49.004Z,27.80
2018-06-28T11:36:16.387Z,27.80
2018-06-28T11:38:44.063Z,27.80
2018-06-28T11:41:11.433Z,27.80
2018-06-28T11:43:38.796Z,27.90
2018-06-28T11:46:06.159Z,27.90
2018-06-28T11:48:33.545Z,27.80
2018-06-28T11:51:01.121Z,28.00
2018-06-28T11:53:28.515Z,28.00
2018-06-28T11:55:55.892Z,28.10
2018-06-28T11:58:23.232Z,27.90
2018-06-28T12:00:50.621Z,27.70
2018-06-28T12:03:18.085Z,27.80
2018-06-28T12:05:45.448Z,27.70
2018-06-28T12:08:12.874Z,27.70
2018-06-28T12:10:40.226Z,27.90
2018-06-28T12:13:07.610Z,28.10
2018-06-28T12:15:34.969Z,28.10
2018-06-28T12:18:02.361Z,28.20
2018-06-28T12:20:29.833Z,28.30
2018-06-28T12:22:57.201Z,28.40
2018-06-28T12:25:24.617Z,28.40
2018-06-28T12:27:52.113Z,28.30
2018-06-28T12:30:19.482Z,28.30
2018-06-28T12:32:47.474Z,28.40
2018-06-28T12:35:14.881Z,28.30
2018-06-28T12:37:42.280Z,27.90
2018-06-28T12:40:09.658Z,27.70
2018-06-28T12:42:37.756Z,27.60
2018-06-28T12:45:05.470Z,27.50
2018-06-28T12:47:50.237Z,27.60
2018-06-28T12:50:17.645Z,27.70
2018-06-28T12:52:53.761Z,27.80
2018-06-28T12:55:21.685Z,27.90
2018-06-28T12:57:49.490Z,27.50
2018-06-28T13:00:17.502Z,27.10
2018-06-28T13:02:45.195Z,27.40
2018-06-28T13:05:13.577Z,27.80
2018-06-28T13:07:41.006Z,27.70
2018-06-28T13:10:10.197Z,27.70
2018-06-28T13:12:37.958Z,27.60
2018-06-28T13:15:06.134Z,27.30
2018-06-28T13:17:33.525Z,27.20
2018-06-28T13:24:56.569Z,27.60
2018-06-28T13:27:24.113Z,27.70
2018-06-28T13:29:51.554Z,27.60
2018-06-28T13:32:19.019Z,27.50
2018-06-28T13:34:46.429Z,27.60
2018-06-28T13:37:14.149Z,27.50
2018-06-28T13:39:41.780Z,27.60
2018-06-28T13:42:09.404Z,27.70
2018-06-28T13:44:36.708Z,27.70
2018-06-28T13:47:04.371Z,27.70
2018-06-28T13:49:31.828Z,27.60
2018-06-28T13:51:59.241Z,27.60
2018-06-28T13:54:26.610Z,27.50
2018-06-28T13:56:54.094Z,27.40
2018-06-28T13:59:21.439Z,27.40
2018-06-28T14:01:48.846Z,27.50
2018-06-28T14:04:16.245Z,27.60
2018-06-28T14:06:43.637Z,27.50
2018-06-28T14:09:12.464Z,27.60
2018-06-28T14:11:39.982Z,27.60
2018-06-28T14:14:07.389Z,27.60
2018-06-28T14:16:34.821Z,27.50
2018-06-28T14:19:02.424Z,27.50
2018-06-28T14:21:29.786Z,27.30
2018-06-28T14:23:57.190Z,27.30
2018-06-28T14:26:24.621Z,27.30
2018-06-28T14:28:52.165Z,27.40
2018-06-28T14:31:19.585Z,27.40
2018-06-28T14:33:46.973Z,27.30
2018-06-28T14:36:14.389Z,27.40
2018-06-28T14:38:41.751Z,27.30
2018-06-28T14:41:09.923Z,27.40
2018-06-28T14:43:37.313Z,27.30
2018-06-28T14:46:05.142Z,27.30
2018-06-28T14:48:32.551Z,27.30
2018-06-28T14:50:59.983Z,27.40
2018-06-28T14:53:27.751Z,27.50
2018-06-28T14:55:55.247Z,27.40
2018-06-28T14:58:22.617Z,27.30
2018-06-28T15:00:50.089Z,27.20
2018-06-28T15:03:17.485Z,27.30
2018-06-28T15:05:44.855Z,27.30
2018-06-28T15:08:12.297Z,27.40
2018-06-28T15:10:39.727Z,27.30
2018-06-28T15:13:07.498Z,27.30
2018-06-28T15:15:34.918Z,27.20
2018-06-28T15:18:02.404Z,27.30
2018-06-28T15:20:29.774Z,27.30
2018-06-28T15:22:57.284Z,27.30
2018-06-28T15:25:24.648Z,27.30
2018-06-28T15:27:52.085Z,27.20
2018-06-28T15:30:19.513Z,27.10
2018-06-28T15:32:47.208Z,27.10
2018-06-28T15:35:14.582Z,27.10
2018-06-28T15:37:42.212Z,27.10
2018-06-28T15:40:09.591Z,27.00
2018-06-28T15:42:36.996Z,26.90
2018-06-28T15:45:04.413Z,26.90
2018-06-28T15:47:31.805Z,27.00
2018-06-28T15:49:59.435Z,26.90
2018-06-28T15:52:26.861Z,27.00
2018-06-28T15:54:54.276Z,27.00
2018-06-28T15:57:21.669Z,27.00
2018-06-28T15:59:49.390Z,27.00
2018-06-28T16:02:16.845Z,27.10
2018-06-28T16:04:44.391Z,27.00
2018-06-28T16:07:11.917Z,26.90
2018-06-28T16:09:39.730Z,26.90
2018-06-28T16:12:07.133Z,26.90
2018-06-28T16:14:34.501Z,26.70
2018-06-28T16:17:01.971Z,26.70
2018-06-28T16:19:29.371Z,26.70
2018-06-28T16:21:56.793Z,26.70
2018-06-28T16:24:24.583Z,26.80
2018-06-28T16:26:52.000Z,26.80
2018-06-28T16:29:19.960Z,26.80
2018-06-28T16:31:47.414Z,26.80
2018-06-28T16:34:14.881Z,26.60
2018-06-28T16:36:42.453Z,26.50
2018-06-28T16:39:10.791Z,26.40
2018-06-28T16:41:38.314Z,26.30
2018-06-28T16:44:05.968Z,26.10
2018-06-28T16:46:33.375Z,26.00
2018-06-28T16:49:00.765Z,25.90
2018-06-28T16:51:28.222Z,25.90
2018-06-28T16:53:55.621Z,25.80
2018-06-28T16:56:23.093Z,25.90
2018-06-28T16:58:50.513Z,25.90
2018-06-28T17:01:17.941Z,25.70
2018-06-28T17:03:45.321Z,25.60
2018-06-28T17:06:12.719Z,25.40
2018-06-28T17:08:40.331Z,25.50
2018-06-28T17:11:07.748Z,25.30
2018-06-28T17:13:35.313Z,25.10
2018-06-28T17:16:02.913Z,25.10
2018-06-28T17:18:30.316Z,25.10
2018-06-28T17:20:58.004Z,25.10
2018-06-28T17:23:25.605Z,25.10
2018-06-28T17:25:52.987Z,25.10
2018-06-28T17:28:20.805Z,25.10
2018-06-28T17:30:48.204Z,25.00
2018-06-28T17:33:15.626Z,25.00
2018-06-28T17:35:43.029Z,25.10
2018-06-28T17:38:10.592Z,25.00
2018-06-28T17:40:37.945Z,24.90
2018-06-28T17:43:05.323Z,24.90
2018-06-28T17:45:32.773Z,24.90
2018-06-28T17:48:00.129Z,24.90
2018-06-28T17:50:27.673Z,24.80
2018-06-28T17:52:55.671Z,24.70
2018-06-28T17:55:23.313Z,24.60
2018-06-28T17:57:50.733Z,24.60
2018-06-28T18:00:18.126Z,24.60
2018-06-28T18:02:46.081Z,24.50
2018-06-28T18:05:13.514Z,24.50
2018-06-28T18:07:40.869Z,24.50
2018-06-28T18:10:08.440Z,24.40
2018-06-28T18:12:35.857Z,24.30
2018-06-28T18:15:03.423Z,24.30
2018-06-28T18:17:30.814Z,24.20
2018-06-28T18:19:58.201Z,24.20
2018-06-28T18:22:25.602Z,24.10
2018-06-28T18:24:53.021Z,24.00
2018-06-28T18:27:20.441Z,23.90
2018-06-28T18:29:48.382Z,23.70
2018-06-28T18:32:15.805Z,23.70
2018-06-28T18:34:43.251Z,23.70
2018-06-28T18:37:10.836Z,23.70
2018-06-28T18:39:40.058Z,23.60
2018-06-28T18:42:07.893Z,23.40
2018-06-28T18:44:35.482Z,23.40
2018-06-28T18:47:03.127Z,23.40
2018-06-28T18:49:30.562Z,23.40
2018-06-28T18:51:58.322Z,23.30
2018-06-28T18:56:53.409Z,23.30
2018-06-28T18:59:20.790Z,23.20
2018-06-28T19:01:48.276Z,23.10
2018-06-28T19:04:15.609Z,23.00
2018-06-28T19:06:43.046Z,22.90
2018-06-28T19:09:11.621Z,22.80
2018-06-28T19:11:39.010Z,22.80
2018-06-28T19:14:12.144Z,22.70
2018-06-28T19:16:45.078Z,22.60
2018-06-28T19:19:12.913Z,22.50
2018-06-28T19:21:46.034Z,22.40
2018-06-28T19:24:13.430Z,22.30
2018-06-28T19:26:40.886Z,22.20
2018-06-28T19:29:13.925Z,22.10
2018-06-28T19:31:46.884Z,22.00
2018-06-28T19:34:21.322Z,21.90
2018-06-28T19:36:48.666Z,21.90
2018-06-28T19:39:21.827Z,21.70
2018-06-28T19:41:55.313Z,21.60
2018-06-28T19:44:22.677Z,21.60
2018-06-28T19:46:50.181Z,21.50
2018-06-28T19:49:23.236Z,21.50
2018-06-28T19:51:56.153Z,21.30
2018-06-28T19:54:24.454Z,21.30
2018-06-28T19:56:51.981Z,21.20
2018-06-28T19:59:19.429Z,21.00
2018-06-28T20:01:52.514Z,20.80
2018-06-28T20:04:25.421Z,20.80
2018-06-28T20:06:52.889Z,20.80
2018-06-28T20:09:20.247Z,20.80
2018-06-28T20:11:47.788Z,20.70
2018-06-28T20:14:20.847Z,20.60
2018-06-28T20:16:53.862Z,20.60
2018-06-28T20:19:27.103Z,20.50
2018-06-28T20:21:54.917Z,20.40
2018-06-28T20:24:22.332Z,20.30
2018-06-28T20:26:55.325Z,20.20
2018-06-28T20:29:28.452Z,20.10
2018-06-28T20:32:01.634Z,20.10
2018-06-28T20:34:28.993Z,20.00
2018-06-28T20:36:56.439Z,19.90
2018-06-28T20:39:23.830Z,19.90
2018-06-28T20:41:51.269Z,19.80
2018-06-28T20:44:18.659Z,19.80
2018-06-28T20:46:46.225Z,19.80
2018-06-28T20:49:13.648Z,19.70
2018-06-28T20:51:41.146Z,19.70
2018-06-28T20:54:08.609Z,19.60
2018-06-28T20:56:35.993Z,19.50
2018-06-28T20:59:03.407Z,19.40
2018-06-28T21:01:31.296Z,19.30
2018-06-28T21:03:58.764Z,19.30
2018-06-28T21:06:26.237Z,19.20
2018-06-28T21:08:53.725Z,19.10
2018-06-28T21:11:21.152Z,19.00
2018-06-28T21:13:49.427Z,19.00
2018-06-28T21:18:44.145Z,18.90
2018-06-28T21:21:11.588Z,18.80
2018-06-28T21:23:39.057Z,18.90
2018-06-28T21:28:33.858Z,18.80
2018-06-28T21:31:01.217Z,18.70
2018-06-28T21:35:55.971Z,18.60
2018-06-28T21:38:23.414Z,18.40
2018-06-28T21:40:50.810Z,18.40
2018-06-28T21:43:18.239Z,18.20
2018-06-28T21:45:46.002Z,18.30
2018-06-28T21:48:13.381Z,18.30
2018-06-28T21:50:40.786Z,18.20
2018-06-28T21:53:08.205Z,18.30
2018-06-28T21:55:35.670Z,18.20
2018-06-28T21:58:03.071Z,18.10
2018-06-28T22:00:33.484Z,18.10
2018-06-28T22:03:04.885Z,17.90
2018-06-28T22:05:33.238Z,17.80
2018-06-28T22:08:00.898Z,17.80
2018-06-28T22:10:29.463Z,17.80
2018-06-28T22:12:57.889Z,17.80
2018-06-28T22:15:26.694Z,17.80
2018-06-28T22:17:56.401Z,17.70
2018-06-28T22:20:24.698Z,17.60
2018-06-28T22:22:52.664Z,17.60
2018-06-28T22:25:20.082Z,17.60
2018-06-28T22:27:47.505Z,17.60
2018-06-28T22:30:17.507Z,17.60
2018-06-28T22:32:45.222Z,17.60
2018-06-28T22:35:13.418Z,17.60
2018-06-28T22:37:41.178Z,17.50
2018-06-28T22:40:08.671Z,17.40
2018-06-28T22:42:36.033Z,17.40
2018-06-28T22:45:03.523Z,17.40
2018-06-28T22:47:31.161Z,17.30
2018-06-28T22:49:58.593Z,17.30
2018-06-28T22:52:26.023Z,17.20
2018-06-28T22:54:53.525Z,17.20
2018-06-28T22:57:21.070Z,17.10
2018-06-28T22:59:48.432Z,17.00
2018-06-28T23:02:15.832Z,17.00
2018-06-28T23:04:43.278Z,17.00
2018-06-28T23:07:11.656Z,16.90
2018-06-28T23:09:39.530Z,16.90
2018-06-28T23:12:07.063Z,16.80
2018-06-28T23:14:35.503Z,16.70
2018-06-28T23:17:02.934Z,16.70
2018-06-28T23:19:31.085Z,16.70
2018-06-28T23:21:58.770Z,16.80
2018-06-28T23:24:28.726Z,16.70
2018-06-28T23:26:56.226Z,16.60
2018-06-28T23:29:24.190Z,16.60
2018-06-28T23:31:52.025Z,16.50
2018-06-28T23:34:19.566Z,16.50
2018-06-28T23:36:46.923Z,16.50
2018-06-28T23:39:16.053Z,16.50
2018-06-28T23:41:43.878Z,16.50
2018-06-28T23:44:11.242Z,16.40
2018-06-28T23:46:39.261Z,16.30
2018-06-28T23:49:07.697Z,16.30
2018-06-28T23:51:36.217Z,16.30
2018-06-28T23:54:03.696Z,16.30
2018-06-28T23:56:31.430Z,16.40
2018-06-28T23:59:01.196Z,16.30
